Wolfcreek, Wisconsin
Current Conditions -  °F | °C
As of 3:35 AM on Saturday 20 Dec 2014 (Local Time) from KOEO Reporting Station
Overcast Overcast  
Wind Chill: 20°   Ceiling: 2900
Heat Index: 29°   Visibility: 10mi
Dew Point: 26°   Wind: 9mph
Humidity: 87%   Direction: 160°SSE
Pressure: 30.19"   Gusts: NA
Location:  45.4182°N, 92.6295°W
Report Text: KOEO 200935Z AUTO 16008KT 10SM OVC029 M02/M04 A3019 RMK AO2 T10171036
Loading
Personal Weather Stations






























Interactive Weather Map New forecast layout! Learn more

10-Day Weather Forecast

Advertisements
Track Severe Weather on mobile